»·PEaware :: SWA1807 KSFO-KLAS

SWA1807 :: KSFO-KLAS

FLIGHT INFORMATION

Flight Status: Arrived
Operator:
Southwest Airlines
More flights by this operator :: More flights under this callsign
Pilot: Daniel W. (24238)
Aircraft: BOEING 737-700
(B737)
More flights by this aircraft type
Origin: KSFO San Francisco Intl
United States
Destination: KLAS McCarran Intl
United States
More flights between these airports :: More routes between these airports
Route: +SSTIK4 NTELL Q162 ESSAA BTY SUNST4
File this flight plan on PilotEdge
Remarks: PBN / A1D1O1S2T1 NAV / RNVD1E1A1 RNP10 DOF / 200128 REG / N935WN EET / KZLA0039 CODE / ACFA3D PER / C
Altitude:
(Current/Filed)
33,000ft
Speed:
(Current/Filed)
416kts
Departed: 28-Jan-20 11:20 AM
Arrived: 28-Jan-20 12:24 PM
Distance/Time
Traveled:
359nm/1:04
Distance/Time
To Go:
Arrived

Flight Plot

Page will automatically refresh every two minutes.

Flight plan parsing failed; only flown route is shown


Map Options




Map Legend


Flown Route
Filed Route
Departure Airport
Arrival Airport
Navaid (VOR, NDB)
Fix

Horizontal Profiles

Position Reports

Time Latitude Longitude Heading Altitude Ground
Speed
28-Jan-20 10:47 37.612437 -122.383240 337 21ft 0kts
28-Jan-20 10:48 37.612437 -122.383240 337 21ft 0kts
28-Jan-20 10:49 37.612437 -122.383240 337 21ft 0kts
28-Jan-20 10:50 37.612498 -122.383267 337 21ft 0kts
28-Jan-20 10:51 37.612498 -122.383267 337 21ft 0kts
28-Jan-20 10:52 37.612498 -122.383267 337 21ft 0kts
28-Jan-20 10:53 37.612498 -122.383267 337 21ft 0kts
28-Jan-20 10:54 37.612498 -122.383267 337 21ft 0kts
28-Jan-20 10:55 37.612498 -122.383267 337 21ft 0kts
28-Jan-20 10:56 37.612498 -122.383267 337 21ft 0kts
28-Jan-20 10:57 37.612498 -122.383267 337 21ft 0kts
28-Jan-20 10:58 37.612498 -122.383267 337 21ft 0kts
28-Jan-20 10:59 37.612498 -122.383267 337 21ft 0kts
28-Jan-20 11:00 37.612498 -122.383267 337 20ft 0kts
28-Jan-20 11:01 37.612498 -122.383267 337 20ft 0kts
28-Jan-20 11:02 37.612498 -122.383267 337 20ft 0kts
28-Jan-20 11:03 37.612498 -122.383267 337 20ft 0kts
28-Jan-20 11:04 37.612498 -122.383267 337 20ft 0kts
28-Jan-20 11:05 37.612498 -122.383267 337 20ft 0kts
28-Jan-20 11:06 37.612498 -122.383267 337 20ft 0kts
28-Jan-20 11:07 37.612498 -122.383267 337 20ft 0kts
28-Jan-20 11:08 37.612498 -122.383267 337 20ft 0kts
28-Jan-20 11:09 37.612498 -122.383267 337 20ft 0kts
28-Jan-20 11:10 37.612498 -122.383267 337 20ft 0kts
28-Jan-20 11:11 37.612498 -122.383267 337 20ft 0kts
28-Jan-20 11:12 37.612498 -122.383267 337 21ft 0kts
28-Jan-20 11:13 37.612218 -122.382936 275 21ft 2kts
28-Jan-20 11:14 37.612272 -122.382582 242 21ft 0kts
28-Jan-20 11:15 37.612272 -122.382583 242 21ft 0kts
28-Jan-20 11:16 37.612271 -122.382585 242 21ft 0kts
28-Jan-20 11:17 37.612062 -122.382727 199 21ft 11kts
28-Jan-20 11:18 37.609350 -122.383299 117 21ft 3kts
28-Jan-20 11:19 37.613172 -122.379411 28 21ft 89kts
28-Jan-20 11:20 37.654358 -122.358288 7 1656ft 201kts
28-Jan-20 11:21 37.702050 -122.396146 277 4490ft 246kts
28-Jan-20 11:22 37.648236 -122.444413 193 8404ft 285kts
28-Jan-20 11:23 37.566224 -122.459930 194 11550ft 323kts
28-Jan-20 11:24 37.472115 -122.451510 152 14509ft 390kts
28-Jan-20 11:25 37.413487 -122.331909 112 17788ft 428kts
28-Jan-20 11:26 37.380707 -122.184168 104 20841ft 451kts
28-Jan-20 11:27 37.349177 -122.027526 104 23530ft 471kts
28-Jan-20 11:28 37.316613 -121.865696 104 26007ft 484kts
28-Jan-20 11:29 37.283410 -121.700304 104 28178ft 493kts
28-Jan-20 11:30 37.249052 -121.531610 104 30087ft 501kts
28-Jan-20 11:31 37.214440 -121.363292 105 32194ft 496kts
28-Jan-20 11:32 37.179820 -121.196304 105 33451ft 497kts
28-Jan-20 11:33 37.145108 -121.030152 106 33460ft 490kts
28-Jan-20 11:34 37.110302 -120.864827 106 33463ft 490kts
28-Jan-20 11:35 37.075441 -120.700469 107 33455ft 489kts
28-Jan-20 11:36 37.040275 -120.535881 107 33456ft 488kts
28-Jan-20 11:37 37.005082 -120.372354 107 33455ft 487kts
28-Jan-20 11:38 36.969859 -120.208812 107 33459ft 487kts
28-Jan-20 11:39 36.934059 -120.045110 108 33459ft 486kts
28-Jan-20 11:40 36.909398 -119.886569 87 33449ft 491kts
28-Jan-20 11:41 36.951413 -119.724236 66 33451ft 493kts
28-Jan-20 11:42 37.004577 -119.566071 67 33445ft 493kts
28-Jan-20 11:43 37.056615 -119.407392 67 33438ft 493kts
28-Jan-20 11:44 37.108054 -119.248766 67 33421ft 494kts
28-Jan-20 11:45 37.159519 -119.088589 67 33402ft 494kts
28-Jan-20 11:46 37.210612 -118.929088 68 33377ft 494kts
28-Jan-20 11:47 37.261267 -118.768624 69 33352ft 495kts
28-Jan-20 11:48 37.288832 -118.600063 85 33327ft 494kts
28-Jan-20 11:49 37.303389 -118.428204 85 33313ft 494kts
28-Jan-20 11:50 37.318793 -118.256785 85 33310ft 494kts
28-Jan-20 11:51 37.334260 -118.085241 86 33313ft 495kts
28-Jan-20 11:52 37.348409 -117.913216 89 33316ft 492kts
28-Jan-20 11:53 37.337820 -117.743529 100 33321ft 487kts
28-Jan-20 11:54 37.322553 -117.574022 100 33316ft 487kts
28-Jan-20 11:55 37.306978 -117.405167 100 33318ft 486kts
28-Jan-20 11:56 37.262430 -117.250288 130 33320ft 468kts
28-Jan-20 11:57 37.183552 -117.121249 133 33318ft 466kts
28-Jan-20 11:58 37.104581 -116.992624 132 33316ft 466kts
28-Jan-20 11:59 37.008531 -116.891110 156 33315ft 447kts
28-Jan-20 12:00 36.899832 -116.816191 157 33313ft 447kts
28-Jan-20 12:01 36.794007 -116.733692 144 33103ft 455kts
28-Jan-20 12:02 36.707547 -116.615900 135 30486ft 459kts
28-Jan-20 12:03 36.625116 -116.497599 134 28118ft 446kts
28-Jan-20 12:04 36.544181 -116.382802 134 25745ft 437kts
28-Jan-20 12:05 36.464457 -116.270332 133 23358ft 430kts
28-Jan-20 12:06 36.385907 -116.159622 133 20988ft 424kts
28-Jan-20 12:07 36.308346 -116.050745 133 18638ft 416kts
28-Jan-20 12:08 36.233628 -115.946411 132 17232ft 385kts
28-Jan-20 12:09 36.181668 -115.843351 111 16498ft 339kts
28-Jan-20 12:10 36.147889 -115.736231 111 15312ft 331kts
28-Jan-20 12:11 36.114229 -115.631705 111 14120ft 323kts
28-Jan-20 12:12 36.081362 -115.529832 112 12941ft 315kts
28-Jan-20 12:13 36.048885 -115.430069 112 11833ft 307kts
28-Jan-20 12:14 36.027423 -115.334469 94 11290ft 280kts
28-Jan-20 12:15 36.021190 -115.239704 94 9829ft 272kts
28-Jan-20 12:16 36.014557 -115.147577 94 8589ft 266kts
28-Jan-20 12:17 36.008033 -115.057198 94 7325ft 268kts
28-Jan-20 12:18 36.005033 -114.965247 68 5547ft 266kts
28-Jan-20 12:19 36.065901 -114.955643 313 4033ft 251kts
28-Jan-20 12:20 36.073438 -115.030096 268 3717ft 206kts
28-Jan-20 12:21 36.073692 -115.091924 270 2757ft 150kts
28-Jan-20 12:22 36.073655 -115.138753 270 2189ft 87kts
28-Jan-20 12:23 36.076183 -115.146484 4 2189ft 12kts
28-Jan-20 12:24 36.080201 -115.148023 335 2189ft 17kts
28-Jan-20 12:25 36.082034 -115.148319 65 2189ft 0kts
28-Jan-20 12:26 36.082034 -115.148318 65 2189ft 0kts
28-Jan-20 12:27 36.082034 -115.148318 65 2189ft 0kts
28-Jan-20 12:28 36.082034 -115.148318 65 2189ft 0kts
28-Jan-20 12:29 36.082034 -115.148318 65 2189ft 0kts

Navigation Log

Ident Type
Flight plan parsing failed, navigation log unavailable